Time;durP1;ratioP1;P1;durP2;ratioP2;P2;SDS_P1;SDS_P2;PMS_P1;PMS_P2;Temp;Humidity;BMP_temperature;BMP_pressure;BME280_temperature;BME280_humidity;BME280_pressure;Samples;Min_cycle;Max_cycle;Signal;HPM_P1;HPM_P2
2023/04/16 00:01:40;;;;;;;;;;;;;;;6.78;69.12;94689.69;5015832;28;981;-53
2023/04/16 00:04:07;;;;;;;;;;;;;;;7.10;68.21;94678.56;5015763;28;939;-53
2023/04/16 00:06:33;;;;;;;;;;;;;;;7.33;68.19;94678.94;5015508;28;1228;-53
2023/04/16 00:08:59;;;;;;;;;;;;;;;7.18;68.48;94677.81;5015623;28;975;-53
2023/04/16 00:11:25;;;;;;;;;;;;;;;7.10;68.47;94686.53;5005873;28;1544;-53
2023/04/16 00:13:51;;;;;;;;;;;;;;;7.01;69.29;94688.28;4996005;28;1022;-53
2023/04/16 00:16:17;;;;;;;;;;;;;;;6.88;69.45;94686.97;4995891;28;1922;-53
2023/04/16 00:18:43;;;;;;;;;;;;;;;7.10;68.61;94683.06;4995740;28;1113;-53
2023/04/16 00:21:08;;;;;;;;;;;;;;;7.32;68.33;94668.47;4995960;28;1043;-53
2023/04/16 00:23:34;;;;;;;;;;;;;;;7.15;68.83;94684.28;4995554;28;963;-53
2023/04/16 00:26:00;;;;;;;;;;;;;;;7.12;68.66;94681.91;4995733;28;974;-53
2023/04/16 00:28:26;;;;;;;;;;;;;;;7.21;69.60;94680.19;4995411;28;1082;-52
2023/04/16 00:30:53;;;;;;;;;;;;;;;7.34;69.40;94680.63;4995462;28;1055;-53
2023/04/16 00:33:19;;;;;;;;;;;;;;;7.26;69.47;94675.22;4995477;28;1066;-53
2023/04/16 00:35:45;;;;;;;;;;;;;;;7.03;69.79;94677.50;4995749;28;951;-53
2023/04/16 00:38:12;;;;;;;;;;;;;;;6.94;69.74;94673.09;4995266;28;1996;-53
2023/04/16 00:40:38;;;;;;;;;;;;;;;7.18;68.95;94675.16;4995297;28;1051;-53
2023/04/16 00:43:04;;;;;;;;;;;;;;;7.35;69.10;94676.13;4995553;28;983;-53
2023/04/16 00:45:30;;;;;;;;;;;;;;;7.43;68.82;94668.22;4995310;28;1105;-52
2023/04/16 00:47:57;;;;;;;;;;;;;;;7.28;68.91;94665.25;4995589;28;1023;-53
2023/04/16 00:50:23;;;;;;;;;;;;;;;6.99;69.52;94676.97;4995226;28;1135;-53
2023/04/16 00:52:49;;;;;;;;;;;;;;;7.09;69.67;94666.25;4995403;28;970;-53
2023/04/16 00:55:17;;;;;;;;;;;;;;;7.32;69.18;94677.28;4994848;28;903;-53
2023/04/16 00:57:44;;;;;;;;;;;;;;;7.28;69.62;94672.41;4995305;28;1995;-53
2023/04/16 01:00:10;;;;;;;;;;;;;;;7.21;69.66;94675.69;4995230;28;966;-53
2023/04/16 01:02:37;;;;;;;;;;;;;;;7.09;69.74;94674.22;4994939;28;1093;-53
2023/04/16 01:05:03;;;;;;;;;;;;;;;7.21;69.11;94678.34;4994871;28;1042;-53
2023/04/16 01:07:30;;;;;;;;;;;;;;;7.20;68.34;94675.84;4994610;28;1609;-53
2023/04/16 01:09:56;;;;;;;;;;;;;;;7.16;68.94;94685.09;4994640;28;1042;-53
2023/04/16 01:12:22;;;;;;;;;;;;;;;7.35;68.72;94673.47;5011498;28;1616;-53
2023/04/16 01:14:48;;;;;;;;;;;;;;;7.64;67.87;94678.53;5014481;28;975;-53
2023/04/16 01:17:14;;;;;;;;;;;;;;;7.90;66.94;94675.88;5013626;28;1991;-53
2023/04/16 01:19:41;;;;;;;;;;;;;;;7.93;68.16;94675.59;5014169;28;1093;-53
2023/04/16 01:22:07;;;;;;;;;;;;;;;7.99;68.54;94677.63;5014231;28;963;-53
2023/04/16 01:24:33;;;;;;;;;;;;;;;8.06;68.54;94679.66;5013934;28;1042;-53
2023/04/16 01:26:59;;;;;;;;;;;;;;;8.13;67.76;94680.69;5014001;28;1121;-53
2023/04/16 01:29:26;;;;;;;;;;;;;;;7.92;69.20;94678.41;5013910;28;1046;-53
2023/04/16 01:31:52;;;;;;;;;;;;;;;7.66;68.21;94673.88;5014265;28;1016;-53
2023/04/16 01:34:17;;;;;;;;;;;;;;;7.66;67.95;94670.41;5014243;28;982;-53
2023/04/16 01:36:44;;;;;;;;;;;;;;;7.79;66.77;94673.47;5013841;28;1993;-53
2023/04/16 01:39:12;;;;;;;;;;;;;;;7.92;66.03;94671.25;5014149;28;966;-53
2023/04/16 01:41:38;;;;;;;;;;;;;;;8.02;66.43;94669.31;5013986;28;970;-53
2023/04/16 01:44:04;;;;;;;;;;;;;;;8.03;67.11;94672.81;5013853;28;1093;-53
2023/04/16 01:46:32;;;;;;;;;;;;;;;8.06;67.51;94666.34;5013657;28;1050;-53
2023/04/16 01:48:58;;;;;;;;;;;;;;;8.05;67.36;94670.84;5013751;28;979;-53
2023/04/16 01:51:24;;;;;;;;;;;;;;;7.79;69.09;94669.00;5013606;28;1090;-53
2023/04/16 01:53:50;;;;;;;;;;;;;;;7.67;69.25;94664.94;5013705;28;1908;-53
2023/04/16 01:56:16;;;;;;;;;;;;;;;7.60;69.83;94664.69;5013545;28;1906;-53
2023/04/16 01:58:42;;;;;;;;;;;;;;;7.71;69.76;94662.78;5013787;28;1049;-54
2023/04/16 02:01:08;;;;;;;;;;;;;;;7.80;69.57;94667.19;5013507;28;1113;-53
2023/04/16 02:03:34;;;;;;;;;;;;;;;7.79;69.25;94662.84;5013472;28;1029;-53
2023/04/16 02:06:00;;;;;;;;;;;;;;;7.89;68.94;94665.38;5013377;28;1098;-53
2023/04/16 02:08:26;;;;;;;;;;;;;;;7.87;69.29;94665.53;5013247;28;1066;-53
2023/04/16 02:10:52;;;;;;;;;;;;;;;7.57;70.22;94667.69;5008516;28;1258;-53
2023/04/16 02:13:18;;;;;;;;;;;;;;;7.39;70.68;94669.53;4993941;28;970;-53
2023/04/16 02:15:48;;;;;;;;;;;;;;;7.26;71.61;94664.59;4993934;28;1026;-53
2023/04/16 02:18:14;;;;;;;;;;;;;;;7.22;71.69;94666.72;4993592;28;1991;-53
2023/04/16 02:20:41;;;;;;;;;;;;;;;7.22;71.84;94661.38;4993694;28;1027;-53
2023/04/16 02:23:07;;;;;;;;;;;;;;;7.22;70.67;94655.25;4994028;28;1014;-53
2023/04/16 02:25:37;;;;;;;;;;;;;;;7.22;70.05;94656.06;4993429;28;1035;-53
2023/04/16 02:28:03;;;;;;;;;;;;;;;7.32;69.98;94657.81;4994461;28;978;-53
2023/04/16 02:30:30;;;;;;;;;;;;;;;7.52;69.07;94663.81;4997724;28;978;-53
2023/04/16 02:32:56;;;;;;;;;;;;;;;7.67;68.65;94658.78;4997712;28;968;-53
2023/04/16 02:35:21;;;;;;;;;;;;;;;7.81;68.98;94664.34;4997576;28;1094;-53
2023/04/16 02:37:47;;;;;;;;;;;;;;;7.84;68.95;94657.06;4997335;28;1907;-53
2023/04/16 02:40:13;;;;;;;;;;;;;;;7.86;69.77;94655.91;4997643;28;1002;-53
2023/04/16 02:42:39;;;;;;;;;;;;;;;7.60;70.79;94631.94;4997502;28;1045;-53
2023/04/16 02:45:06;;;;;;;;;;;;;;;7.68;71.19;94655.94;4997549;28;1041;-53
2023/04/16 02:47:32;;;;;;;;;;;;;;;7.55;71.56;94661.69;4997421;28;1049;-53
2023/04/16 02:49:58;;;;;;;;;;;;;;;7.55;71.51;94658.16;4997288;28;1054;-53
2023/04/16 02:52:24;;;;;;;;;;;;;;;7.63;71.81;94659.06;4997574;28;990;-53
2023/04/16 02:54:50;;;;;;;;;;;;;;;7.49;72.42;94664.94;4997578;28;1048;-53
2023/04/16 02:57:16;;;;;;;;;;;;;;;7.39;72.33;94656.22;4997157;28;1987;-53
2023/04/16 02:59:42;;;;;;;;;;;;;;;7.36;71.84;94656.53;4997228;28;1081;-53
2023/04/16 03:02:07;;;;;;;;;;;;;;;7.33;72.13;94662.16;4997536;28;1116;-53
2023/04/16 03:04:33;;;;;;;;;;;;;;;7.43;70.11;94654.91;4997123;28;997;-53
2023/04/16 03:06:59;;;;;;;;;;;;;;;7.35;71.58;94653.03;4997125;28;1281;-53
2023/04/16 03:09:25;;;;;;;;;;;;;;;7.27;71.02;94655.63;4997282;28;1034;-54
2023/04/16 03:11:51;;;;;;;;;;;;;;;7.43;70.87;94649.59;5009974;28;1548;-54
2023/04/16 03:14:17;;;;;;;;;;;;;;;7.62;70.33;94659.22;5016644;28;996;-54
2023/04/16 03:16:43;;;;;;;;;;;;;;;7.67;70.19;94653.44;5016434;28;2001;-54
2023/04/16 03:19:09;;;;;;;;;;;;;;;7.59;71.02;94654.22;5016526;28;1046;-54
2023/04/16 03:21:35;;;;;;;;;;;;;;;7.42;71.67;94655.94;5016788;28;970;-53
2023/04/16 03:24:01;;;;;;;;;;;;;;;7.51;72.08;94663.00;5016610;28;1042;-53
2023/04/16 03:26:27;;;;;;;;;;;;;;;7.60;71.92;94661.22;5016551;28;1018;-54
2023/04/16 03:28:53;;;;;;;;;;;;;;;7.72;71.61;94661.78;5016388;28;1046;-54
2023/04/16 03:31:19;;;;;;;;;;;;;;;7.62;71.57;94667.22;4999157;28;1009;-54
2023/04/16 03:33:45;;;;;;;;;;;;;;;7.39;72.56;94665.03;5016566;28;986;-53
2023/04/16 03:36:11;;;;;;;;;;;;;;;7.40;72.19;94666.72;5016147;28;994;-54
2023/04/16 03:38:37;;;;;;;;;;;;;;;7.22;72.59;94663.22;5015544;28;1967;-53
2023/04/16 03:41:03;;;;;;;;;;;;;;;7.08;73.10;94663.78;5016239;28;1033;-53
2023/04/16 03:43:29;;;;;;;;;;;;;;;7.08;72.97;94669.91;5015913;28;1093;-54
2023/04/16 03:45:56;;;;;;;;;;;;;;;7.04;72.43;94664.06;4998792;28;1188;-53
2023/04/16 03:48:21;;;;;;;;;;;;;;;7.03;72.25;94665.03;5016178;28;1297;-53
2023/04/16 03:50:47;;;;;;;;;;;;;;;7.14;72.02;94669.31;5015767;28;1108;-54
2023/04/16 03:53:13;;;;;;;;;;;;;;;7.20;71.07;94662.53;5015605;28;1058;-53
2023/04/16 03:55:40;;;;;;;;;;;;;;;7.22;70.81;94666.72;5015962;28;1006;-53
2023/04/16 03:58:06;;;;;;;;;;;;;;;7.36;70.56;94675.13;5015864;28;1910;-53
2023/04/16 04:00:32;;;;;;;;;;;;;;;7.18;70.88;94675.97;5015923;28;976;-53
2023/04/16 04:02:58;;;;;;;;;;;;;;;7.17;71.56;94671.66;5015680;28;1038;-53
2023/04/16 04:05:24;;;;;;;;;;;;;;;7.15;71.49;94671.00;5015385;28;1240;-54
2023/04/16 04:07:50;;;;;;;;;;;;;;;7.07;71.53;94672.72;5015578;28;1058;-51
2023/04/16 04:10:16;;;;;;;;;;;;;;;6.96;71.65;94685.25;5015626;28;1301;-53
2023/04/16 04:12:42;;;;;;;;;;;;;;;6.81;72.38;94684.06;5015549;28;1587;-54
2023/04/16 04:15:08;;;;;;;;;;;;;;;6.85;72.42;94688.13;5015457;28;1122;-53
2023/04/16 04:17:34;;;;;;;;;;;;;;;7.15;71.90;94683.41;5015375;28;1910;-54
2023/04/16 04:20:00;;;;;;;;;;;;;;;7.10;71.98;94683.06;5015353;28;1374;-54
2023/04/16 04:22:26;;;;;;;;;;;;;;;7.00;72.36;94681.31;5015493;28;999;-54
2023/04/16 04:24:52;;;;;;;;;;;;;;;7.00;72.09;94683.97;5015313;28;974;-54
2023/04/16 04:27:18;;;;;;;;;;;;;;;6.98;72.37;94685.94;4997700;28;1116;-54
2023/04/16 04:29:44;;;;;;;;;;;;;;;7.20;71.92;94689.13;5015289;28;1049;-54
2023/04/16 04:32:10;;;;;;;;;;;;;;;7.20;71.99;94679.31;5015198;28;1030;-54
2023/04/16 04:34:36;;;;;;;;;;;;;;;7.15;71.02;94681.63;5015050;28;1001;-54
2023/04/16 04:37:02;;;;;;;;;;;;;;;7.04;71.60;94676.53;5015212;28;1910;-54
2023/04/16 04:39:28;;;;;;;;;;;;;;;7.30;71.67;94681.06;5014884;28;1051;-54
2023/04/16 04:41:54;;;;;;;;;;;;;;;7.50;71.09;94679.91;5014986;28;1186;-54
2023/04/16 04:44:20;;;;;;;;;;;;;;;7.50;70.38;94687.06;5015058;28;1034;-54
2023/04/16 04:46:46;;;;;;;;;;;;;;;7.63;71.45;94691.00;5014993;28;1073;-54
2023/04/16 04:49:12;;;;;;;;;;;;;;;7.88;70.18;94687.69;5027449;28;1018;-54
2023/04/16 04:51:38;;;;;;;;;;;;;;;8.05;69.99;94689.47;5033714;28;1096;-52
2023/04/16 04:54:03;;;;;;;;;;;;;;;8.11;70.32;94690.66;5034472;28;1081;-53
2023/04/16 04:56:29;;;;;;;;;;;;;;;8.09;71.17;94685.50;5034286;28;1910;-54
2023/04/16 04:58:55;;;;;;;;;;;;;;;8.01;71.14;94690.78;5034767;28;1056;-54
2023/04/16 05:01:21;;;;;;;;;;;;;;;8.04;70.78;94687.78;5034457;28;953;-53
2023/04/16 05:03:47;;;;;;;;;;;;;;;8.05;70.56;94689.47;5034334;28;2002;-53
2023/04/16 05:06:13;;;;;;;;;;;;;;;8.10;69.74;94692.50;5034104;28;1077;-53
2023/04/16 05:08:39;;;;;;;;;;;;;;;8.26;69.31;94699.75;5016604;28;1046;-54
2023/04/16 05:11:05;;;;;;;;;;;;;;;8.47;69.05;94701.22;5027811;28;1258;-54
2023/04/16 05:13:31;;;;;;;;;;;;;;;8.86;66.41;94706.03;5014533;28;1006;-54
2023/04/16 05:15:58;;;;;;;;;;;;;;;9.11;64.80;94696.28;5014413;28;1098;-53
2023/04/16 05:18:24;;;;;;;;;;;;;;;9.40;62.41;94703.00;5014114;28;1915;-53
2023/04/16 05:20:50;;;;;;;;;;;;;;;9.39;65.00;94702.19;5014282;28;1093;-54
2023/04/16 05:23:16;;;;;;;;;;;;;;;9.41;64.95;94708.19;5014422;28;1064;-53
2023/04/16 05:25:42;;;;;;;;;;;;;;;9.27;63.27;94703.47;5014230;28;1046;-54
2023/04/16 05:28:08;;;;;;;;;;;;;;;9.32;63.77;94702.00;5014263;28;1105;-53
2023/04/16 05:30:34;;;;;;;;;;;;;;;9.43;61.96;94703.50;5014455;28;1033;-53
2023/04/16 05:33:00;;;;;;;;;;;;;;;9.53;61.51;94703.34;5014383;28;1027;-54
2023/04/16 05:35:26;;;;;;;;;;;;;;;9.44;60.08;94699.00;5014021;28;1034;-54
2023/04/16 05:37:52;;;;;;;;;;;;;;;9.66;59.80;94706.38;5014117;28;1993;-53
2023/04/16 05:40:19;;;;;;;;;;;;;;;9.52;60.03;94707.88;5013935;28;1074;-53
2023/04/16 05:42:45;;;;;;;;;;;;;;;9.58;60.83;94695.69;5014278;28;978;-55
2023/04/16 05:45:11;;;;;;;;;;;;;;;9.68;61.93;94708.88;5014181;28;1005;-54
2023/04/16 05:47:37;;;;;;;;;;;;;;;9.56;60.44;94709.19;5013837;28;1038;-54
2023/04/16 05:50:03;;;;;;;;;;;;;;;9.65;59.11;94701.19;5013849;28;1062;-54
2023/04/16 05:52:30;;;;;;;;;;;;;;;9.60;58.37;94700.84;5013629;28;1176;-54
2023/04/16 05:55:00;;;;;;;;;;;;;;;9.56;59.58;94698.53;5013962;28;1005;-54
2023/04/16 05:57:29;;;;;;;;;;;;;;;9.67;60.14;94702.69;5013614;28;1902;-55
2023/04/16 05:59:55;;;;;;;;;;;;;;;9.73;59.58;94696.69;5013789;28;1096;-54
2023/04/16 06:02:21;;;;;;;;;;;;;;;9.80;58.76;94699.50;5013785;28;998;-54
2023/04/16 06:04:48;;;;;;;;;;;;;;;9.86;59.61;94688.16;5013902;28;1015;-54
2023/04/16 06:07:14;;;;;;;;;;;;;;;9.94;58.99;94689.97;5013360;28;1249;-54
2023/04/16 06:09:40;;;;;;;;;;;;;;;9.98;59.10;94680.66;5013625;28;1101;-54
2023/04/16 06:12:06;;;;;;;;;;;;;;;10.06;58.77;94677.97;5013461;28;1254;-54
2023/04/16 06:14:32;;;;;;;;;;;;;;;10.07;59.53;94681.47;5013312;28;1317;-54
2023/04/16 06:16:59;;;;;;;;;;;;;;;10.26;57.88;94677.59;5013719;28;1902;-54
2023/04/16 06:19:24;;;;;;;;;;;;;;;10.54;56.98;94678.03;5013617;28;1051;-54
2023/04/16 06:21:51;;;;;;;;;;;;;;;10.71;56.57;94676.97;5010133;28;1502;-55
2023/04/16 06:24:17;;;;;;;;;;;;;;;10.66;57.45;94675.81;5013108;28;1117;-54
2023/04/16 06:26:43;;;;;;;;;;;;;;;10.41;57.37;94669.72;5013549;28;958;-54
2023/04/16 06:29:10;;;;;;;;;;;;;;;10.60;57.89;94680.00;5013605;28;986;-54
2023/04/16 06:31:36;;;;;;;;;;;;;;;10.54;57.46;94680.72;5013311;28;1050;-54
2023/04/16 06:34:05;;;;;;;;;;;;;;;10.48;57.53;94673.38;5013001;28;1076;-54
2023/04/16 06:36:31;;;;;;;;;;;;;;;10.57;58.05;94677.72;5013302;28;1910;-54
2023/04/16 06:38:57;;;;;;;;;;;;;;;10.57;58.35;94682.19;5013298;28;987;-55
2023/04/16 06:41:25;;;;;;;;;;;;;;;10.67;59.47;94681.00;5012448;28;997;-58
2023/04/16 06:43:51;;;;;;;;;;;;;;;10.72;56.07;94681.31;5013205;28;1030;-55
2023/04/16 06:46:17;;;;;;;;;;;;;;;10.79;57.62;94684.13;5013143;28;1055;-55
2023/04/16 06:48:43;;;;;;;;;;;;;;;10.83;56.36;94687.28;5013507;28;975;-55
2023/04/16 06:51:10;;;;;;;;;;;;;;;10.78;57.67;94685.16;5010115;28;1637;-55
2023/04/16 06:53:36;;;;;;;;;;;;;;;10.92;57.97;94687.06;5012861;28;1077;-54
2023/04/16 06:56:02;;;;;;;;;;;;;;;10.97;58.16;94685.72;5009964;28;1283;-54
2023/04/16 06:58:29;;;;;;;;;;;;;;;10.90;57.72;94678.38;5012939;28;1911;-54
2023/04/16 07:00:55;;;;;;;;;;;;;;;11.01;57.83;94687.03;5013007;28;821;-55
2023/04/16 07:03:22;;;;;;;;;;;;;;;11.01;58.92;94671.00;4993899;28;1681;-55
2023/04/16 07:05:48;;;;;;;;;;;;;;;10.93;60.36;94674.53;5004326;28;1082;-55
2023/04/16 07:08:14;;;;;;;;;;;;;;;10.99;59.97;94671.16;5012889;28;1082;-55
2023/04/16 07:10:41;;;;;;;;;;;;;;;11.13;60.10;94674.94;5010479;28;1926;-55
2023/04/16 07:13:08;;;;;;;;;;;;;;;11.30;60.50;94679.16;5004558;28;987;-55
2023/04/16 07:15:34;;;;;;;;;;;;;;;11.07;59.87;94670.28;4996206;28;1041;-55
2023/04/16 07:18:01;;;;;;;;;;;;;;;11.11;60.30;94675.09;4997219;28;1998;-55
2023/04/16 07:20:27;;;;;;;;;;;;;;;11.45;59.77;94668.53;4997153;28;1046;-55
2023/04/16 07:22:55;;;;;;;;;;;;;;;11.65;58.13;94668.91;5015799;28;1262;-55
2023/04/16 07:25:21;;;;;;;;;;;;;;;11.53;57.09;94675.66;5016440;28;1026;-54
2023/04/16 07:27:48;;;;;;;;;;;;;;;11.61;58.09;94664.91;5016334;28;1030;-55
2023/04/16 07:30:15;;;;;;;;;;;;;;;11.81;57.35;94675.13;5010151;28;1619;-55
2023/04/16 07:32:41;;;;;;;;;;;;;;;11.78;57.85;94670.13;4996956;28;1392;-55
2023/04/16 07:35:07;;;;;;;;;;;;;;;11.85;58.17;94673.75;5016289;28;1011;-55
2023/04/16 07:37:33;;;;;;;;;;;;;;;11.86;57.51;94670.06;5014344;28;1963;-55
2023/04/16 07:40:00;;;;;;;;;;;;;;;11.89;58.51;94665.22;5006850;28;998;-55
2023/04/16 07:42:26;;;;;;;;;;;;;;;11.75;57.40;94667.81;5011169;28;1276;-54
2023/04/16 07:44:53;;;;;;;;;;;;;;;11.97;56.65;94669.66;5011557;28;2000;-55
2023/04/16 07:47:21;;;;;;;;;;;;;;;12.24;56.01;94672.75;5005565;28;1693;-55
2023/04/16 07:49:48;;;;;;;;;;;;;;;12.44;55.90;94665.00;5001773;28;970;-55
2023/04/16 07:52:14;;;;;;;;;;;;;;;12.55;54.88;94663.72;5009221;28;1318;-54
2023/04/16 07:54:41;;;;;;;;;;;;;;;12.83;55.77;94658.53;4998798;28;1043;-55
2023/04/16 07:57:07;;;;;;;;;;;;;;;13.15;53.57;94662.63;4995062;28;1997;-55
2023/04/16 07:59:33;;;;;;;;;;;;;;;13.18;52.39;94656.03;5004795;28;1108;-55
2023/04/16 08:02:00;;;;;;;;;;;;;;;13.19;51.65;94660.41;5006592;28;1158;-55
2023/04/16 08:04:26;;;;;;;;;;;;;;;12.93;51.58;94660.91;5013978;28;2014;-55
2023/04/16 08:06:53;;;;;;;;;;;;;;;13.08;52.70;94650.97;4987274;28;1476;-55
2023/04/16 08:09:21;;;;;;;;;;;;;;;13.22;51.26;94649.25;4996364;28;1057;-55
2023/04/16 08:11:48;;;;;;;;;;;;;;;13.39;50.44;94656.13;5002785;28;2015;-54
2023/04/16 08:14:16;;;;;;;;;;;;;;;13.52;51.13;94644.66;5010734;28;1034;-54
2023/04/16 08:16:43;;;;;;;;;;;;;;;13.66;50.32;94642.94;5009524;28;2167;-55
2023/04/16 08:19:09;;;;;;;;;;;;;;;13.78;49.67;94640.56;5001468;28;1688;-55
2023/04/16 08:21:36;;;;;;;;;;;;;;;13.92;50.02;94633.44;5009346;28;1634;-55
2023/04/16 08:24:02;;;;;;;;;;;;;;;13.97;48.69;94641.75;5015462;28;1148;-55
2023/04/16 08:26:28;;;;;;;;;;;;;;;13.94;49.02;94634.06;5014032;28;1093;-55
2023/04/16 08:28:54;;;;;;;;;;;;;;;13.92;46.88;94638.81;5015314;28;1041;-55
2023/04/16 08:31:20;;;;;;;;;;;;;;;14.33;48.70;94625.47;5015262;28;1037;-56
2023/04/16 08:33:46;;;;;;;;;;;;;;;14.38;48.36;94627.56;5015221;28;1110;-56
2023/04/16 08:36:12;;;;;;;;;;;;;;;14.49;46.68;94629.69;5014996;28;1057;-55
2023/04/16 08:38:39;;;;;;;;;;;;;;;14.22;45.08;94629.53;5014817;28;1969;-55
2023/04/16 08:41:08;;;;;;;;;;;;;;;14.42;45.55;94628.84;5014376;28;1050;-56
2023/04/16 08:43:36;;;;;;;;;;;;;;;14.98;44.68;94635.97;5014983;28;1034;-56
2023/04/16 08:46:03;;;;;;;;;;;;;;;15.30;43.22;94641.69;5014898;28;1311;-55
2023/04/16 08:48:32;;;;;;;;;;;;;;;15.08;43.15;94635.59;5015043;28;1045;-55
2023/04/16 08:50:59;;;;;;;;;;;;;;;15.18;43.01;94639.59;5014277;28;1344;-55
2023/04/16 08:53:39;;;;;;;;;;;;;;;15.65;44.72;94626.25;5015040;28;1017;-55
2023/04/16 08:56:08;;;;;;;;;;;;;;;15.97;42.53;94627.34;5015110;28;991;-54
2023/04/16 08:58:36;;;;;;;;;;;;;;;15.89;41.88;94632.09;5017638;28;1906;-55
2023/04/16 09:01:03;;;;;;;;;;;;;;;16.05;43.07;94625.44;5011589;28;1617;-54
2023/04/16 09:03:30;;;;;;;;;;;;;;;16.53;41.99;94630.59;5013706;28;1093;-56
2023/04/16 09:05:58;;;;;;;;;;;;;;;16.92;42.05;94635.09;5014411;28;1214;-54
2023/04/16 09:08:24;;;;;;;;;;;;;;;16.88;41.44;94627.63;5014327;28;1110;-53
2023/04/16 09:10:51;;;;;;;;;;;;;;;17.65;40.87;94633.91;5014314;28;1548;-58
2023/04/16 09:13:19;;;;;;;;;;;;;;;18.00;40.96;94630.78;5014306;28;1290;-54
2023/04/16 09:15:45;;;;;;;;;;;;;;;18.42;37.97;94639.19;5014156;28;1078;-53
2023/04/16 09:18:11;;;;;;;;;;;;;;;18.77;38.80;94629.69;5013955;28;1910;-54
2023/04/16 09:20:38;;;;;;;;;;;;;;;19.03;39.04;94631.31;5014243;28;956;-54
2023/04/16 09:23:04;;;;;;;;;;;;;;;19.02;38.15;94637.75;5014041;28;1001;-54
2023/04/16 09:25:34;;;;;;;;;;;;;;;18.78;39.60;94621.34;5014459;28;1038;-54
2023/04/16 09:28:00;;;;;;;;;;;;;;;18.40;40.85;94614.22;5014208;28;1583;-54
2023/04/16 09:30:26;;;;;;;;;;;;;;;17.85;40.26;94612.19;5014469;28;1050;-54
2023/04/16 09:33:15;;;;;;;;;;;;;;;17.66;41.51;94619.34;5014113;28;1133;-54
2023/04/16 09:35:48;;;;;;;;;;;;;;;17.41;41.71;94610.34;5014031;28;1041;-54
2023/04/16 09:38:14;;;;;;;;;;;;;;;17.54;42.86;94599.47;5013562;28;1906;-54
2023/04/16 09:40:41;;;;;;;;;;;;;;;17.37;42.74;94597.25;5013985;28;1035;-54
2023/04/16 09:43:13;;;;;;;;;;;;;;;17.29;43.07;94597.53;4996950;28;994;-54
2023/04/16 09:45:52;;;;;;;;;;;;;;;17.41;43.67;94586.03;5014264;28;1030;-54
2023/04/16 09:48:44;;;;;;;;;;;;;;;17.50;43.08;94593.66;5013916;28;1228;-54
2023/04/16 09:51:10;;;;;;;;;;;;;;;17.48;42.97;94589.53;5012557;28;1389;-54
2023/04/16 09:53:37;;;;;;;;;;;;;;;17.72;43.13;94574.41;5014117;28;974;-54
2023/04/16 09:56:04;;;;;;;;;;;;;;;17.67;42.92;94577.75;5013844;28;1058;-54
2023/04/16 09:58:30;;;;;;;;;;;;;;;17.89;42.91;94580.94;5013697;28;2040;-54
2023/04/16 10:01:05;;;;;;;;;;;;;;;18.17;42.51;94571.53;4996651;28;959;-54
2023/04/16 10:03:33;;;;;;;;;;;;;;;18.39;41.42;94571.97;5013775;28;1063;-54
2023/04/16 10:09:58;;;;;;;;;;;;;;;19.96;38.86;94575.81;4993954;28;682;-53
2023/04/16 10:12:25;;;;;;;;;;;;;;;20.11;39.76;94574.50;4993839;28;1634;-54
2023/04/16 10:14:51;;;;;;;;;;;;;;;20.33;39.60;94562.03;4994213;28;1029;-54
2023/04/16 10:17:18;;;;;;;;;;;;;;;20.43;39.11;94564.13;4993752;28;1934;-54
2023/04/16 10:19:44;;;;;;;;;;;;;;;20.54;38.42;94567.91;4993708;28;1148;-53
2023/04/16 10:22:10;;;;;;;;;;;;;;;20.16;37.26;94555.66;4994070;28;1005;-54
2023/04/16 10:24:37;;;;;;;;;;;;;;;20.24;38.32;94555.28;4994007;28;1050;-54
2023/04/16 10:27:03;;;;;;;;;;;;;;;20.20;38.22;94545.97;4993855;28;1245;-53
2023/04/16 10:29:30;;;;;;;;;;;;;;;19.81;36.70;94556.44;4991466;28;2061;-53
2023/04/16 10:31:57;;;;;;;;;;;;;;;19.81;36.68;94551.84;4982928;28;2077;-54
2023/04/16 10:34:23;;;;;;;;;;;;;;;20.23;37.53;94546.31;4993845;28;1050;-53
2023/04/16 10:36:51;;;;;;;;;;;;;;;20.19;37.12;94539.72;4993679;28;1906;-54
2023/04/16 10:39:19;;;;;;;;;;;;;;;19.46;37.78;94539.00;4993562;28;1017;-53
2023/04/16 10:41:45;;;;;;;;;;;;;;;18.99;38.97;94532.56;4993940;28;962;-53
2023/04/16 10:44:11;;;;;;;;;;;;;;;18.82;38.92;94535.06;4993670;28;1038;-54
2023/04/16 10:46:38;;;;;;;;;;;;;;;18.81;39.01;94528.81;4977004;28;982;-53
2023/04/16 10:49:15;;;;;;;;;;;;;;;18.72;39.84;94520.16;4983652;28;976;-53
2023/04/16 10:51:41;;;;;;;;;;;;;;;18.81;39.67;94522.59;4996610;28;991;-54
2023/04/16 10:54:07;;;;;;;;;;;;;;;18.79;39.72;94520.06;4997740;28;1042;-54
2023/04/16 10:56:34;;;;;;;;;;;;;;;18.68;39.08;94518.13;4997349;28;1914;-54
2023/04/16 10:59:00;;;;;;;;;;;;;;;18.54;38.95;94518.28;4997713;28;1050;-54
2023/04/16 11:01:33;;;;;;;;;;;;;;;18.36;38.59;94515.56;4997299;28;1033;-54
2023/04/16 11:04:19;;;;;;;;;;;;;;;18.17;38.85;94505.78;4987049;28;1050;-54
2023/04/16 11:07:02;;;;;;;;;;;;;;;18.15;39.25;94506.00;4970803;28;1283;-54
2023/04/16 11:09:50;;;;;;;;;;;;;;;18.29;38.63;94499.41;4995206;28;1225;-54
2023/04/16 11:12:17;;;;;;;;;;;;;;;18.59;39.13;94492.41;5013302;28;1573;-54
2023/04/16 11:14:50;;;;;;;;;;;;;;;18.67;37.72;94501.06;5016704;28;1097;-54
2023/04/16 11:17:17;;;;;;;;;;;;;;;18.60;38.31;94494.06;5016821;28;1982;-54
2023/04/16 11:19:43;;;;;;;;;;;;;;;18.59;40.47;94485.13;5016646;28;964;-54
2023/04/16 11:22:14;;;;;;;;;;;;;;;18.62;40.07;94481.13;5016600;28;1223;-53
2023/04/16 11:24:40;;;;;;;;;;;;;;;18.66;39.78;94479.63;5016582;28;1104;-53
2023/04/16 11:27:06;;;;;;;;;;;;;;;18.67;39.49;94484.00;5016693;28;1046;-54
2023/04/16 11:29:33;;;;;;;;;;;;;;;18.70;39.40;94484.38;5014792;28;1941;-53
2023/04/16 11:31:59;;;;;;;;;;;;;;;18.71;39.21;94482.47;5003627;28;2059;-54
2023/04/16 11:34:25;;;;;;;;;;;;;;;18.77;39.41;94484.28;5007196;28;1743;-54
2023/04/16 11:36:51;;;;;;;;;;;;;;;18.89;39.78;94476.22;5002712;28;1910;-54
2023/04/16 11:39:18;;;;;;;;;;;;;;;18.88;39.53;94475.41;4996705;28;2064;-55
2023/04/16 11:41:49;;;;;;;;;;;;;;;18.82;39.41;94470.06;5005844;28;983;-55
2023/04/16 11:44:21;;;;;;;;;;;;;;;18.61;39.93;94480.31;4999275;28;2056;-55
2023/04/16 11:46:48;;;;;;;;;;;;;;;18.61;40.58;94472.19;5008083;28;1065;-54
2023/04/16 11:49:16;;;;;;;;;;;;;;;18.72;40.15;94470.56;5015966;28;931;-54
2023/04/16 11:51:43;;;;;;;;;;;;;;;18.77;40.56;94464.50;5009809;28;2011;-54
2023/04/16 11:54:17;;;;;;;;;;;;;;;18.71;40.69;94461.63;4996426;28;1518;-53
2023/04/16 11:56:45;;;;;;;;;;;;;;;18.58;41.18;94459.09;4996561;28;1977;-58
2023/04/16 11:59:12;;;;;;;;;;;;;;;18.48;42.36;94453.41;5002002;28;2032;-54
2023/04/16 12:01:40;;;;;;;;;;;;;;;18.53;42.70;94446.25;4997801;28;2002;-54
2023/04/16 12:04:06;;;;;;;;;;;;;;;18.53;42.56;94451.69;5001970;28;1866;-54
2023/04/16 12:06:32;;;;;;;;;;;;;;;18.67;42.72;94449.63;5007687;28;1837;-54
2023/04/16 12:08:58;;;;;;;;;;;;;;;18.70;42.70;94456.44;5006217;28;1709;-55
2023/04/16 12:11:40;;;;;;;;;;;;;;;18.63;42.19;94445.72;5010170;28;1167;-54
2023/04/16 12:14:10;;;;;;;;;;;;;;;18.59;42.41;94449.94;5007959;28;1922;-54
2023/04/16 12:16:36;;;;;;;;;;;;;;;18.56;42.27;94438.75;4996531;28;1910;-53
2023/04/16 12:19:03;;;;;;;;;;;;;;;18.53;40.35;94451.69;4998700;28;1855;-55
2023/04/16 12:21:39;;;;;;;;;;;;;;;18.54;40.41;94450.59;4996060;28;963;-55
2023/04/16 12:24:06;;;;;;;;;;;;;;;18.60;40.13;94450.75;5006056;28;1876;-55
2023/04/16 12:26:36;;;;;;;;;;;;;;;18.45;39.93;94454.66;5014637;28;1431;-53
2023/04/16 12:29:15;;;;;;;;;;;;;;;18.41;39.83;94458.06;5015263;28;1154;-54
2023/04/16 12:31:41;;;;;;;;;;;;;;;18.51;41.69;94456.47;5015264;28;1046;-52
2023/04/16 12:34:09;;;;;;;;;;;;;;;18.48;41.26;94446.09;5015444;28;1042;-53
2023/04/16 12:36:35;;;;;;;;;;;;;;;18.46;41.71;94450.94;4997577;28;1262;-53
2023/04/16 12:39:02;;;;;;;;;;;;;;;18.47;42.33;94452.56;5015363;28;1977;-53
2023/04/16 12:41:28;;;;;;;;;;;;;;;18.15;41.68;94443.78;5015090;28;1036;-54
2023/04/16 12:44:11;;;;;;;;;;;;;;;18.14;42.76;94434.84;5015028;28;1511;-54
2023/04/16 12:46:45;;;;;;;;;;;;;;;18.32;42.39;94427.78;5015189;28;1040;-54
2023/04/16 12:49:11;;;;;;;;;;;;;;;18.18;42.76;94427.13;5015161;28;978;-55
2023/04/16 12:51:37;;;;;;;;;;;;;;;18.12;42.43;94419.91;5013416;28;2643;-55
2023/04/16 12:54:05;;;;;;;;;;;;;;;18.26;41.94;94417.88;5002366;28;1030;-55
2023/04/16 12:56:31;;;;;;;;;;;;;;;18.12;42.90;94420.72;5003567;28;1085;-55
2023/04/16 12:58:57;;;;;;;;;;;;;;;18.19;43.02;94428.75;5005067;28;1976;-57
2023/04/16 13:01:23;;;;;;;;;;;;;;;18.18;42.96;94427.13;4996532;28;1034;-56
2023/04/16 13:03:49;;;;;;;;;;;;;;;18.34;42.58;94433.78;4996926;28;1760;-57
2023/04/16 13:06:15;;;;;;;;;;;;;;;18.39;42.13;94425.00;5004769;28;960;-55